createdAt,value
2022-11-03T00:01:06.582Z,7.88
2022-11-03T00:03:34.249Z,6.30
2022-11-03T00:06:07.469Z,10.35
2022-11-03T00:08:42.507Z,5.82
2022-11-03T00:11:14.531Z,11.20
2022-11-03T00:13:43.424Z,6.30
2022-11-03T00:16:12.260Z,9.52
2022-11-03T00:18:40.470Z,7.47
2022-11-03T00:21:11.930Z,7.32
2022-11-03T00:23:40.577Z,10.07
2022-11-03T00:26:15.091Z,10.27
2022-11-03T00:28:43.527Z,10.85
2022-11-03T00:31:11.977Z,6.82
2022-11-03T00:33:39.816Z,7.53
2022-11-03T00:36:07.465Z,7.55
2022-11-03T00:38:35.459Z,6.53
2022-11-03T00:41:03.463Z,10.40
2022-11-03T00:43:32.023Z,6.22
2022-11-03T00:45:59.609Z,7.63
2022-11-03T00:48:29.723Z,8.00
2022-11-03T00:51:15.079Z,12.02
2022-11-03T00:53:43.904Z,5.88
2022-11-03T00:56:12.783Z,10.07
2022-11-03T00:58:40.123Z,12.57
2022-11-03T01:01:09.228Z,7.60
2022-11-03T01:03:38.160Z,5.45
2022-11-03T01:06:28.929Z,6.68
2022-11-03T01:08:56.355Z,8.23
2022-11-03T01:11:43.240Z,8.27
2022-11-03T01:14:11.288Z,5.88
2022-11-03T01:16:39.043Z,8.45
2022-11-03T01:19:06.584Z,5.95
2022-11-03T01:21:34.647Z,8.40
2022-11-03T01:24:02.817Z,6.28
2022-11-03T01:26:30.120Z,8.10
2022-11-03T01:28:57.578Z,6.40
2022-11-03T01:31:26.214Z,6.78
2022-11-03T01:33:54.813Z,5.50
2022-11-03T01:36:22.619Z,10.38
2022-11-03T01:38:50.029Z,8.82
2022-11-03T01:41:19.307Z,9.82
2022-11-03T01:43:48.151Z,8.23
2022-11-03T01:46:23.754Z,9.95
2022-11-03T01:48:58.720Z,8.13
2022-11-03T01:51:26.811Z,8.00
2022-11-03T01:53:55.595Z,6.78
2022-11-03T01:56:24.400Z,8.68
2022-11-03T01:58:54.860Z,6.60
2022-11-03T02:01:23.117Z,9.18
2022-11-03T02:03:53.164Z,9.73
2022-11-03T02:06:23.443Z,5.45
2022-11-03T02:08:56.787Z,7.75
2022-11-03T02:11:42.951Z,9.20
2022-11-03T02:14:14.200Z,6.45
2022-11-03T02:16:44.925Z,8.20
2022-11-03T02:19:35.445Z,8.90
2022-11-03T02:22:21.647Z,8.73
2022-11-03T02:24:54.347Z,9.02
2022-11-03T02:27:22.371Z,7.60
2022-11-03T02:29:49.840Z,6.80
2022-11-03T02:32:30.111Z,8.40
2022-11-03T02:35:03.606Z,8.65
2022-11-03T02:37:33.756Z,11.02
2022-11-03T02:40:07.760Z,8.63
2022-11-03T02:42:36.746Z,6.47
2022-11-03T02:45:06.345Z,10.88
2022-11-03T02:47:34.210Z,9.05
2022-11-03T02:50:01.710Z,7.53
2022-11-03T02:52:38.104Z,5.93
2022-11-03T02:55:23.924Z,8.55
2022-11-03T02:58:00.146Z,8.07
2022-11-03T03:00:28.924Z,7.40
2022-11-03T03:03:00.928Z,5.72
2022-11-03T03:05:29.963Z,12.18
2022-11-03T03:08:01.215Z,6.30
2022-11-03T03:10:34.492Z,6.60
2022-11-03T03:13:02.450Z,6.77
2022-11-03T03:15:48.683Z,6.82
2022-11-03T03:18:15.988Z,5.20
2022-11-03T03:20:50.358Z,7.47
2022-11-03T03:23:19.940Z,7.80
2022-11-03T03:25:54.999Z,6.68
2022-11-03T03:28:26.009Z,6.78
2022-11-03T03:30:56.113Z,9.98
2022-11-03T03:33:23.853Z,6.88
2022-11-03T03:35:52.447Z,13.18
2022-11-03T03:38:24.387Z,7.07
2022-11-03T03:40:53.349Z,6.50
2022-11-03T03:43:21.063Z,7.55
2022-11-03T03:45:50.279Z,8.05
2022-11-03T03:48:18.242Z,4.63
2022-11-03T03:50:47.942Z,7.35
2022-11-03T03:53:16.420Z,6.13
2022-11-03T03:55:45.663Z,5.70
2022-11-03T03:58:14.027Z,7.35
2022-11-03T04:00:41.804Z,9.00
2022-11-03T04:03:20.236Z,9.05
2022-11-03T04:05:48.273Z,5.80
2022-11-03T04:08:16.194Z,4.72
2022-11-03T04:11:03.700Z,7.85
2022-11-03T04:13:50.017Z,7.43
2022-11-03T04:16:36.220Z,5.32
2022-11-03T04:19:22.747Z,5.00
2022-11-03T04:22:08.904Z,9.20
2022-11-03T04:24:36.167Z,7.60
2022-11-03T04:27:14.695Z,8.75
2022-11-03T04:29:41.960Z,8.82
2022-11-03T04:32:14.077Z,7.13
2022-11-03T04:34:42.499Z,6.75
2022-11-03T04:37:12.116Z,6.60
2022-11-03T04:39:39.652Z,5.25
2022-11-03T04:42:17.812Z,5.53
2022-11-03T04:44:45.772Z,6.72
2022-11-03T04:47:14.618Z,8.48
2022-11-03T04:49:45.759Z,6.47
2022-11-03T04:52:15.584Z,13.02
2022-11-03T04:54:43.277Z,8.70
2022-11-03T04:57:14.387Z,7.47
2022-11-03T04:59:42.512Z,4.80
2022-11-03T05:02:14.952Z,5.20
2022-11-03T05:04:43.454Z,8.27
2022-11-03T05:07:17.718Z,9.02
2022-11-03T05:12:12.837Z,9.77
2022-11-03T05:14:40.288Z,5.68
2022-11-03T05:17:22.970Z,5.95
2022-11-03T05:19:51.701Z,8.77
2022-11-03T05:22:20.762Z,7.13
2022-11-03T05:24:48.278Z,5.22
2022-11-03T05:27:22.659Z,7.47
2022-11-03T05:29:52.951Z,7.53
2022-11-03T05:32:26.620Z,8.13
2022-11-03T05:34:54.983Z,10.15
2022-11-03T05:37:31.760Z,8.30
2022-11-03T05:40:11.881Z,10.57
2022-11-03T05:42:41.935Z,6.57
2022-11-03T05:45:16.797Z,6.22
2022-11-03T05:47:44.154Z,6.88
2022-11-03T05:50:21.800Z,5.80
2022-11-03T05:52:50.575Z,7.13
2022-11-03T05:55:29.364Z,7.47
2022-11-03T05:57:58.837Z,5.93
2022-11-03T06:00:31.000Z,11.15
2022-11-03T06:02:59.028Z,13.07
2022-11-03T06:05:27.093Z,8.10
2022-11-03T06:07:55.848Z,7.38
2022-11-03T06:10:29.786Z,10.35
2022-11-03T06:13:05.299Z,9.32
2022-11-03T06:15:38.251Z,12.55
2022-11-03T06:18:20.823Z,8.75
2022-11-03T06:20:52.650Z,9.40
2022-11-03T06:23:21.293Z,10.15
2022-11-03T06:25:49.659Z,7.32
2022-11-03T06:28:26.580Z,9.07
2022-11-03T06:30:54.555Z,7.03
2022-11-03T06:33:29.765Z,7.68
2022-11-03T06:36:01.114Z,8.93
2022-11-03T06:38:32.299Z,10.27
2022-11-03T06:40:59.952Z,9.48
2022-11-03T06:43:29.050Z,11.52
2022-11-03T06:45:58.255Z,8.23
2022-11-03T06:48:31.463Z,7.30
2022-11-03T06:51:00.244Z,12.98
2022-11-03T06:53:30.095Z,9.20
2022-11-03T06:55:57.856Z,14.52
2022-11-03T06:58:31.071Z,9.75
2022-11-03T07:01:03.535Z,8.63
2022-11-03T07:03:33.627Z,8.85
2022-11-03T07:06:01.009Z,10.57
2022-11-03T07:08:28.469Z,15.77
2022-11-03T07:11:08.263Z,9.57
2022-11-03T07:13:35.909Z,15.20
2022-11-03T07:16:03.860Z,8.88
2022-11-03T07:18:35.697Z,9.73
2022-11-03T07:21:23.136Z,11.05
2022-11-03T07:23:50.593Z,11.40
2022-11-03T07:26:17.924Z,8.30
2022-11-03T07:28:48.801Z,9.68
2022-11-03T07:31:24.851Z,8.32
2022-11-03T07:33:56.666Z,7.15
2022-11-03T07:36:24.684Z,9.20
2022-11-03T07:38:53.916Z,9.70
2022-11-03T07:41:23.283Z,29.08
2022-11-03T07:43:58.808Z,23.92
2022-11-03T07:46:27.075Z,17.77
2022-11-03T07:48:57.174Z,13.85
2022-11-03T07:51:27.720Z,37.53
2022-11-03T07:53:57.317Z,29.80
2022-11-03T07:56:24.781Z,15.45
2022-11-03T07:58:55.107Z,31.88
2022-11-03T08:01:30.670Z,29.13
2022-11-03T08:04:02.622Z,16.10
2022-11-03T08:06:30.016Z,11.45
2022-11-03T08:08:57.712Z,32.33
2022-11-03T08:11:28.097Z,17.83
2022-11-03T08:13:57.027Z,23.10
2022-11-03T08:16:24.395Z,12.13
2022-11-03T08:18:51.907Z,10.63
2022-11-03T08:21:19.236Z,9.80
2022-11-03T08:23:47.804Z,15.40
2022-11-03T08:26:15.955Z,10.80
2022-11-03T08:28:43.323Z,9.00
2022-11-03T08:31:13.041Z,10.38
2022-11-03T08:33:41.316Z,8.18
2022-11-03T08:36:09.919Z,9.75
2022-11-03T08:38:37.551Z,13.20
2022-11-03T08:41:05.642Z,9.15
2022-11-03T08:43:32.898Z,14.50
2022-11-03T08:46:08.332Z,20.88
2022-11-03T08:48:40.456Z,22.50
2022-11-03T08:51:14.315Z,29.63
2022-11-03T08:53:44.962Z,42.78
2022-11-03T08:56:16.086Z,47.67
2022-11-03T08:58:45.464Z,54.35
2022-11-03T09:01:13.039Z,43.67
2022-11-03T09:03:41.172Z,40.10
2022-11-03T09:06:10.316Z,45.97
2022-11-03T09:11:28.404Z,36.05
2022-11-03T09:13:56.001Z,39.72
2022-11-03T09:16:23.399Z,40.33
2022-11-03T09:18:50.930Z,40.38
2022-11-03T09:21:18.638Z,40.00
2022-11-03T09:23:46.210Z,38.03
2022-11-03T09:26:13.577Z,38.03
2022-11-03T09:28:40.916Z,39.97
2022-11-03T09:31:08.393Z,35.28
2022-11-03T09:33:36.082Z,37.25
2022-11-03T09:36:03.616Z,29.08
2022-11-03T09:38:31.007Z,28.90
2022-11-03T09:40:59.932Z,31.50
2022-11-03T09:43:27.476Z,29.52
2022-11-03T09:45:55.049Z,35.53
2022-11-03T09:48:22.763Z,32.58
2022-11-03T09:50:52.756Z,34.05
2022-11-03T09:53:20.848Z,24.77
2022-11-03T09:55:48.334Z,25.45
2022-11-03T09:58:17.097Z,26.48
2022-11-03T10:00:45.200Z,30.17
2022-11-03T10:03:13.463Z,23.17
2022-11-03T10:05:41.284Z,28.50
2022-11-03T10:08:14.947Z,27.52
2022-11-03T10:10:43.574Z,22.20
2022-11-03T10:13:13.730Z,20.10
2022-11-03T10:15:42.317Z,21.65
2022-11-03T10:18:10.380Z,20.15
2022-11-03T10:20:38.059Z,21.35
2022-11-03T10:23:05.605Z,23.50
2022-11-03T10:25:37.795Z,19.08
2022-11-03T10:28:20.451Z,23.27
2022-11-03T10:31:17.545Z,20.55
2022-11-03T10:33:55.164Z,22.00
2022-11-03T10:36:30.219Z,22.80
2022-11-03T10:38:57.987Z,19.75
2022-11-03T10:41:30.041Z,20.75
2022-11-03T10:44:00.779Z,21.35
2022-11-03T10:49:17.630Z,21.30
2022-11-03T10:51:48.064Z,20.00
2022-11-03T10:54:16.703Z,21.17
2022-11-03T10:56:44.941Z,22.00
2022-11-03T10:59:32.634Z,22.48
2022-11-03T11:02:01.100Z,20.67
2022-11-03T11:04:29.546Z,20.90
2022-11-03T11:06:57.229Z,20.38
2022-11-03T11:09:28.266Z,19.55
2022-11-03T11:12:03.110Z,19.55
2022-11-03T11:14:30.575Z,24.67
2022-11-03T11:17:02.256Z,22.48
2022-11-03T11:19:30.066Z,20.70
2022-11-03T11:21:59.542Z,18.83
2022-11-03T11:24:48.887Z,18.65
2022-11-03T11:27:35.134Z,20.67
2022-11-03T11:30:08.130Z,19.17
2022-11-03T11:32:48.595Z,17.52
2022-11-03T11:35:27.869Z,21.13
2022-11-03T11:37:55.452Z,20.25
2022-11-03T11:40:25.549Z,23.75
2022-11-03T11:43:05.249Z,24.25
2022-11-03T11:45:51.619Z,19.30
2022-11-03T11:48:19.502Z,25.30
2022-11-03T11:50:47.211Z,23.08
2022-11-03T11:53:15.216Z,19.75
2022-11-03T11:55:44.872Z,19.67
2022-11-03T11:58:18.018Z,20.38
2022-11-03T12:01:00.191Z,21.23
2022-11-03T12:03:29.638Z,19.55
2022-11-03T12:05:57.246Z,17.05
2022-11-03T12:08:33.958Z,18.05
2022-11-03T12:11:05.943Z,16.20
2022-11-03T12:13:51.420Z,16.52
2022-11-03T12:16:29.108Z,16.15
2022-11-03T12:18:56.852Z,14.85
2022-11-03T12:21:54.178Z,14.10
2022-11-03T12:24:33.861Z,15.60
2022-11-03T12:27:01.635Z,16.45
2022-11-03T12:29:28.956Z,16.05
2022-11-03T12:31:56.550Z,14.43
2022-11-03T12:34:24.181Z,15.93
2022-11-03T12:36:55.976Z,16.88
2022-11-03T12:39:26.003Z,15.45
2022-11-03T12:41:53.629Z,18.20
2022-11-03T12:44:21.556Z,14.00
2022-11-03T12:46:53.876Z,19.77
2022-11-03T12:49:21.522Z,14.80
2022-11-03T12:51:48.969Z,19.98
2022-11-03T12:54:16.544Z,16.13
2022-11-03T12:56:44.368Z,18.45
2022-11-03T12:59:11.801Z,16.33
2022-11-03T13:01:39.307Z,18.02
2022-11-03T13:04:06.856Z,19.25
2022-11-03T13:06:34.394Z,13.52
2022-11-03T13:09:03.261Z,15.98
2022-11-03T13:11:49.453Z,14.65
2022-11-03T13:14:17.357Z,17.40
2022-11-03T13:16:45.071Z,15.70
2022-11-03T13:19:12.381Z,17.90
2022-11-03T13:21:39.795Z,16.17
2022-11-03T13:24:07.609Z,14.60
2022-11-03T13:26:35.495Z,16.80
2022-11-03T13:29:03.245Z,17.65
2022-11-03T13:31:32.064Z,16.42
2022-11-03T13:34:02.311Z,24.33
2022-11-03T13:36:30.359Z,16.17
2022-11-03T13:38:58.274Z,18.45
2022-11-03T13:41:28.542Z,14.40
2022-11-03T13:43:55.979Z,16.92
2022-11-03T13:46:23.492Z,16.13
2022-11-03T13:51:38.617Z,16.63
2022-11-03T13:59:40.825Z,18.60
2022-11-03T14:04:55.998Z,15.40
2022-11-03T14:07:23.793Z,17.48
2022-11-03T14:09:55.903Z,14.50
2022-11-03T14:12:31.200Z,17.25
2022-11-03T14:15:09.573Z,15.60
2022-11-03T14:17:37.007Z,20.10
2022-11-03T14:20:05.233Z,16.52
2022-11-03T14:22:32.851Z,14.93
2022-11-03T14:25:01.500Z,16.42
2022-11-03T14:27:29.446Z,16.02
2022-11-03T14:29:56.772Z,15.68
2022-11-03T14:32:24.388Z,18.30
2022-11-03T14:34:51.727Z,17.77
2022-11-03T14:37:19.618Z,16.77
2022-11-03T14:39:47.641Z,18.45
2022-11-03T14:42:16.725Z,18.75
2022-11-03T14:44:45.058Z,16.17
2022-11-03T14:47:13.723Z,18.85
2022-11-03T14:49:41.172Z,20.13
2022-11-03T14:52:08.868Z,24.73
2022-11-03T14:54:36.781Z,22.85
2022-11-03T14:57:04.651Z,28.42
2022-11-03T14:59:32.361Z,25.55
2022-11-03T15:02:00.402Z,25.65
2022-11-03T15:04:28.407Z,29.77
2022-11-03T15:06:55.935Z,26.10
2022-11-03T15:09:23.658Z,33.92
2022-11-03T15:11:51.444Z,35.60
2022-11-03T15:14:19.245Z,33.70
2022-11-03T15:16:47.189Z,34.05
2022-11-03T15:19:14.841Z,35.80
2022-11-03T15:21:42.733Z,35.35
2022-11-03T15:26:57.902Z,39.25
2022-11-03T15:29:25.351Z,46.00
2022-11-03T15:31:53.590Z,43.88
2022-11-03T15:34:24.494Z,42.78
2022-11-03T15:36:51.894Z,41.13
2022-11-03T15:39:19.661Z,36.03
2022-11-03T15:41:47.595Z,46.90
2022-11-03T15:44:15.631Z,46.47
2022-11-03T15:46:43.526Z,45.13
2022-11-03T15:49:10.857Z,50.60
2022-11-03T15:51:41.597Z,48.30
2022-11-03T15:54:29.476Z,38.45
2022-11-03T15:56:57.141Z,40.47
2022-11-03T15:59:24.802Z,37.75
2022-11-03T16:01:56.653Z,36.08
2022-11-03T16:04:27.423Z,36.58
2022-11-03T16:07:07.674Z,41.85
2022-11-03T16:09:35.600Z,41.10
2022-11-03T16:12:03.505Z,39.88
2022-11-03T16:14:30.816Z,36.53
2022-11-03T16:16:58.392Z,35.25
2022-11-03T16:19:26.076Z,35.15
2022-11-03T16:21:53.558Z,34.85
2022-11-03T16:24:21.194Z,30.63
2022-11-03T16:26:50.350Z,36.97
2022-11-03T16:29:18.126Z,32.90
2022-11-03T16:31:48.624Z,35.50
2022-11-03T16:34:16.044Z,33.55
2022-11-03T16:36:43.439Z,30.15
2022-11-03T16:39:12.468Z,31.35
2022-11-03T16:41:40.061Z,31.58
2022-11-03T16:44:08.483Z,30.08
2022-11-03T16:46:36.215Z,30.98
2022-11-03T16:49:03.915Z,29.92
2022-11-03T16:51:31.577Z,31.70
2022-11-03T16:53:59.904Z,28.92
2022-11-03T16:56:27.204Z,27.58
2022-11-03T16:58:54.863Z,26.02
2022-11-03T17:01:22.549Z,29.13
2022-11-03T17:03:51.339Z,31.20
2022-11-03T17:06:19.164Z,28.75
2022-11-03T17:08:52.443Z,25.55
2022-11-03T17:11:36.395Z,20.25
2022-11-03T17:14:08.132Z,23.48
2022-11-03T17:16:35.800Z,25.70
2022-11-03T17:19:03.383Z,20.42
2022-11-03T17:21:31.114Z,22.30
2022-11-03T17:24:00.017Z,29.38
2022-11-03T17:26:43.147Z,28.45
2022-11-03T17:29:14.700Z,23.70
2022-11-03T17:31:42.115Z,16.40
2022-11-03T17:34:12.152Z,19.35
2022-11-03T17:36:40.159Z,19.20
2022-11-03T17:39:07.741Z,16.83
2022-11-03T17:41:36.891Z,17.30
2022-11-03T17:44:04.506Z,20.38
2022-11-03T17:46:31.954Z,22.95
2022-11-03T17:49:00.865Z,21.55
2022-11-03T17:51:28.295Z,21.27
2022-11-03T17:53:55.820Z,20.65
2022-11-03T17:56:30.863Z,22.63
2022-11-03T17:58:58.744Z,23.00
2022-11-03T18:01:27.782Z,23.52
2022-11-03T18:04:03.072Z,23.38
2022-11-03T18:06:30.695Z,24.02
2022-11-03T18:08:59.675Z,24.45
2022-11-03T18:11:47.732Z,26.17
2022-11-03T18:14:15.340Z,23.52
2022-11-03T18:16:42.929Z,86.53
2022-11-03T18:19:12.810Z,32.25
2022-11-03T18:21:40.383Z,26.02
2022-11-03T18:24:14.870Z,26.40
2022-11-03T18:26:42.552Z,30.75
2022-11-03T18:29:10.786Z,31.45
2022-11-03T18:31:43.973Z,34.83
2022-11-03T18:34:14.056Z,36.88
2022-11-03T18:36:41.505Z,60.42
2022-11-03T18:39:12.264Z,42.83
2022-11-03T18:41:40.683Z,31.10
2022-11-03T18:44:16.418Z,30.35
2022-11-03T18:46:43.828Z,340.67
2022-11-03T18:49:11.276Z,166.63
2022-11-03T18:51:39.290Z,57.83
2022-11-03T18:54:13.632Z,49.95
2022-11-03T18:59:16.071Z,35.20
2022-11-03T19:01:44.383Z,31.92
2022-11-03T19:04:15.469Z,32.67
2022-11-03T19:06:44.002Z,27.83
2022-11-03T19:09:14.699Z,29.05
2022-11-03T19:11:42.331Z,33.85
2022-11-03T19:14:14.273Z,39.10
2022-11-03T19:17:08.809Z,39.15
2022-11-03T19:19:34.240Z,37.47
2022-11-03T19:22:02.411Z,36.47
2022-11-03T19:24:30.578Z,34.83
2022-11-03T19:27:01.069Z,36.90
2022-11-03T19:29:30.362Z,35.45
2022-11-03T19:31:57.933Z,26.27
2022-11-03T19:34:27.340Z,26.85
2022-11-03T19:36:55.315Z,27.10
2022-11-03T19:39:26.863Z,24.85
2022-11-03T19:42:13.296Z,27.42
2022-11-03T19:44:40.772Z,30.30
2022-11-03T19:47:11.609Z,29.35
2022-11-03T19:49:39.348Z,31.08
2022-11-03T19:52:07.104Z,30.65
2022-11-03T19:54:34.749Z,36.90
2022-11-03T19:57:02.207Z,41.67
2022-11-03T19:59:29.493Z,37.83
2022-11-03T20:01:57.273Z,29.40
2022-11-03T20:04:25.068Z,32.00
2022-11-03T20:06:52.839Z,34.10
2022-11-03T20:09:20.389Z,37.20
2022-11-03T20:11:47.790Z,32.67
2022-11-03T20:14:20.784Z,32.88
2022-11-03T20:16:48.279Z,29.38
2022-11-03T20:19:15.841Z,32.58
2022-11-03T20:21:43.449Z,31.80
2022-11-03T20:24:12.594Z,35.38
2022-11-03T20:26:40.252Z,33.17
2022-11-03T20:29:12.873Z,35.45
2022-11-03T20:31:40.752Z,39.08
2022-11-03T20:34:13.812Z,36.75
2022-11-03T20:36:41.884Z,39.95
2022-11-03T20:39:13.781Z,33.90
2022-11-03T20:41:47.689Z,32.45
2022-11-03T20:44:15.867Z,29.35
2022-11-03T20:46:43.667Z,32.35
2022-11-03T20:49:11.012Z,35.60
2022-11-03T20:51:43.051Z,32.78
2022-11-03T20:54:14.800Z,29.17
2022-11-03T20:56:42.464Z,30.83
2022-11-03T20:59:11.401Z,30.60
2022-11-03T21:01:39.149Z,52.95
2022-11-03T21:04:09.937Z,33.35
2022-11-03T21:06:38.084Z,32.50
2022-11-03T21:09:05.947Z,34.72
2022-11-03T21:11:40.170Z,31.13
2022-11-03T21:14:22.013Z,28.95
2022-11-03T21:17:11.092Z,25.63
2022-11-03T21:20:01.268Z,31.83
2022-11-03T21:22:55.908Z,24.55
2022-11-03T21:25:24.945Z,30.25
2022-11-03T21:27:54.009Z,30.00
2022-11-03T21:30:22.162Z,32.55
2022-11-03T21:32:49.870Z,27.60
2022-11-03T21:35:19.661Z,29.20
2022-11-03T21:37:47.261Z,28.10
2022-11-03T21:40:15.152Z,26.00
2022-11-03T21:43:01.236Z,34.67
2022-11-03T21:45:28.892Z,33.70
2022-11-03T21:48:18.512Z,30.48
2022-11-03T21:50:46.089Z,33.65
2022-11-03T21:53:13.839Z,30.05
2022-11-03T21:55:41.730Z,25.35
2022-11-03T21:58:09.617Z,28.90
2022-11-03T22:00:36.953Z,28.88
2022-11-03T22:03:04.350Z,26.77
2022-11-03T22:05:32.073Z,32.63
2022-11-03T22:07:59.354Z,26.35
2022-11-03T22:10:26.768Z,27.73
2022-11-03T22:12:54.056Z,21.63
2022-11-03T22:15:40.188Z,31.58
2022-11-03T22:18:08.212Z,32.00
2022-11-03T22:20:57.304Z,29.13
2022-11-03T22:23:43.318Z,29.60
2022-11-03T22:26:30.305Z,25.27
2022-11-03T22:29:19.301Z,28.02
2022-11-03T22:31:46.877Z,31.67
2022-11-03T22:34:33.032Z,28.08
2022-11-03T22:37:00.395Z,30.30
2022-11-03T22:39:46.458Z,37.70
2022-11-03T22:42:32.610Z,30.90
2022-11-03T22:45:18.852Z,31.02
2022-11-03T22:47:46.181Z,32.97
2022-11-03T22:50:13.503Z,33.33
2022-11-03T22:52:41.117Z,33.65
2022-11-03T22:55:08.424Z,64.43
2022-11-03T22:57:35.876Z,37.80
2022-11-03T23:00:05.970Z,42.72
2022-11-03T23:02:33.604Z,37.97
2022-11-03T23:05:01.059Z,30.95
2022-11-03T23:07:32.222Z,47.05
2022-11-03T23:10:05.022Z,40.47
2022-11-03T23:12:32.615Z,46.85
2022-11-03T23:15:18.694Z,36.47
2022-11-03T23:18:04.781Z,40.28
2022-11-03T23:20:50.607Z,47.85
2022-11-03T23:23:37.912Z,36.63
2022-11-03T23:26:05.459Z,37.88
2022-11-03T23:28:32.765Z,32.78
2022-11-03T23:31:00.325Z,39.58
2022-11-03T23:33:27.615Z,29.92
2022-11-03T23:35:55.761Z,30.63
2022-11-03T23:38:23.451Z,28.85
2022-11-03T23:40:50.759Z,32.40
2022-11-03T23:43:18.413Z,31.30
2022-11-03T23:46:04.767Z,36.72
2022-11-03T23:48:47.084Z,28.83
2022-11-03T23:51:18.026Z,33.03
2022-11-03T23:53:45.688Z,35.05
2022-11-03T23:56:33.153Z,28.10
2022-11-03T23:59:00.793Z,24.52
